McVeigh, Kentucky
Current Conditions -  °F | °C
As of 11:15 PM on Tuesday 25 Nov 2014 (Local Time) from KPBX Reporting Station
Clear Clear  
Wind Chill: 38°   Ceiling: Unl
Heat Index: 41°   Visibility: 10mi
Dew Point: 28°   Wind: 5mph
Humidity: 60%   Direction: 360°N
Pressure: 30.11"   Gusts: NA
Location:  37.54°N, 82.26°W
Report Text: KPBX 260415Z AUTO 36004KT 10SM CLR 05/M02 A3011 RMK AO2 T00521021
Loading
Personal Weather Stations






























Interactive Weather Map New forecast layout! Learn more

10-Day Weather Forecast

Advertisements
Track Severe Weather on mobile